sensor_id;sensor_type;location;lat;lon;timestamp;pressure;altitude;pressure_sealevel;temperature
13410;BMP180;6775;49.574;11.170;2024-03-06T00:01:05;97518.28;;;7.65
13410;BMP180;6775;49.574;11.170;2024-03-06T00:03:34;97517.88;;;7.58
13410;BMP180;6775;49.574;11.170;2024-03-06T00:06:05;97526.69;;;7.54
13410;BMP180;6775;49.574;11.170;2024-03-06T00:08:34;97525.78;;;7.55
13410;BMP180;6775;49.574;11.170;2024-03-06T00:11:04;97530.25;;;7.64
13410;BMP180;6775;49.574;11.170;2024-03-06T00:13:32;97532.81;;;7.64
13410;BMP180;6775;49.574;11.170;2024-03-06T00:16:01;97536.19;;;7.65
13410;BMP180;6775;49.574;11.170;2024-03-06T00:18:29;97536.81;;;7.68
13410;BMP180;6775;49.574;11.170;2024-03-06T00:20:58;97537.41;;;7.72
13410;BMP180;6775;49.574;11.170;2024-03-06T00:23:28;97542.22;;;7.76
13410;BMP180;6775;49.574;11.170;2024-03-06T00:25:56;97540.88;;;7.83
13410;BMP180;6775;49.574;11.170;2024-03-06T00:28:24;97546.50;;;7.88
13410;BMP180;6775;49.574;11.170;2024-03-06T00:30:53;97552.13;;;7.93
13410;BMP180;6775;49.574;11.170;2024-03-06T00:33:21;97561.63;;;7.91
13410;BMP180;6775;49.574;11.170;2024-03-06T00:35:49;97570.69;;;7.84
13410;BMP180;6775;49.574;11.170;2024-03-06T00:38:18;97565.78;;;7.81
13410;BMP180;6775;49.574;11.170;2024-03-06T00:40:47;97562.91;;;7.86
13410;BMP180;6775;49.574;11.170;2024-03-06T00:43:16;97574.53;;;7.90
13410;BMP180;6775;49.574;11.170;2024-03-06T00:45:44;97584.78;;;7.90
13410;BMP180;6775;49.574;11.170;2024-03-06T00:48:12;97585.81;;;7.87
13410;BMP180;6775;49.574;11.170;2024-03-06T00:50:41;97594.41;;;7.86
13410;BMP180;6775;49.574;11.170;2024-03-06T00:53:09;97587.31;;;7.90
13410;BMP180;6775;49.574;11.170;2024-03-06T00:55:37;97590.53;;;7.93
13410;BMP180;6775;49.574;11.170;2024-03-06T00:58:07;97587.16;;;7.93
13410;BMP180;6775;49.574;11.170;2024-03-06T01:00:35;97585.72;;;7.89
13410;BMP180;6775;49.574;11.170;2024-03-06T01:03:04;97588.47;;;7.86
13410;BMP180;6775;49.574;11.170;2024-03-06T01:05:33;97586.13;;;7.83
13410;BMP180;6775;49.574;11.170;2024-03-06T01:08:02;97594.63;;;7.83
13410;BMP180;6775;49.574;11.170;2024-03-06T01:10:30;97594.41;;;7.86
13410;BMP180;6775;49.574;11.170;2024-03-06T01:12:58;97593.28;;;7.90
13410;BMP180;6775;49.574;11.170;2024-03-06T01:15:28;97586.63;;;7.88
13410;BMP180;6775;49.574;11.170;2024-03-06T01:17:56;97582.31;;;7.88
13410;BMP180;6775;49.574;11.170;2024-03-06T01:20:25;97575.47;;;7.89
13410;BMP180;6775;49.574;11.170;2024-03-06T01:22:53;97567.16;;;7.85
13410;BMP180;6775;49.574;11.170;2024-03-06T01:25:21;97574.84;;;7.85
13410;BMP180;6775;49.574;11.170;2024-03-06T01:27:50;97574.03;;;7.85
13410;BMP180;6775;49.574;11.170;2024-03-06T01:30:18;97581.81;;;7.83
13410;BMP180;6775;49.574;11.170;2024-03-06T01:32:48;97581.13;;;7.81
13410;BMP180;6775;49.574;11.170;2024-03-06T01:35:16;97575.56;;;7.75
13410;BMP180;6775;49.574;11.170;2024-03-06T01:37:45;97580.09;;;7.71
13410;BMP180;6775;49.574;11.170;2024-03-06T01:40:13;97581.72;;;7.72
13410;BMP180;6775;49.574;11.170;2024-03-06T01:42:42;97576.59;;;7.72
13410;BMP180;6775;49.574;11.170;2024-03-06T01:45:10;97569.66;;;7.74
13410;BMP180;6775;49.574;11.170;2024-03-06T01:47:39;97565.44;;;7.73
13410;BMP180;6775;49.574;11.170;2024-03-06T01:50:10;97562.09;;;7.73
13410;BMP180;6775;49.574;11.170;2024-03-06T01:52:41;97563.81;;;7.72
13410;BMP180;6775;49.574;11.170;2024-03-06T01:55:10;97580.00;;;7.73
13410;BMP180;6775;49.574;11.170;2024-03-06T01:57:40;97584.38;;;7.71
13410;BMP180;6775;49.574;11.170;2024-03-06T02:00:11;97584.47;;;7.69
13410;BMP180;6775;49.574;11.170;2024-03-06T02:02:42;97584.47;;;7.69
13410;BMP180;6775;49.574;11.170;2024-03-06T02:05:12;97583.34;;;7.73
13410;BMP180;6775;49.574;11.170;2024-03-06T02:07:44;97585.22;;;7.71
13410;BMP180;6775;49.574;11.170;2024-03-06T02:10:13;97571.91;;;7.66
13410;BMP180;6775;49.574;11.170;2024-03-06T02:12:41;97570.25;;;7.65
13410;BMP180;6775;49.574;11.170;2024-03-06T02:15:10;97576.31;;;7.64
13410;BMP180;6775;49.574;11.170;2024-03-06T02:17:40;97571.41;;;7.61
13410;BMP180;6775;49.574;11.170;2024-03-06T02:20:12;97578.34;;;7.59
13410;BMP180;6775;49.574;11.170;2024-03-06T02:22:43;97570.56;;;7.61
13410;BMP180;6775;49.574;11.170;2024-03-06T02:25:12;97572.31;;;7.60
13410;BMP180;6775;49.574;11.170;2024-03-06T02:27:42;97570.66;;;7.59
13410;BMP180;6775;49.574;11.170;2024-03-06T02:30:11;97566.38;;;7.60
13410;BMP180;6775;49.574;11.170;2024-03-06T02:32:39;97571.72;;;7.57
13410;BMP180;6775;49.574;11.170;2024-03-06T02:35:08;97566.69;;;7.55
13410;BMP180;6775;49.574;11.170;2024-03-06T02:37:37;97569.16;;;7.57
13410;BMP180;6775;49.574;11.170;2024-03-06T02:40:08;97571.59;;;7.58
13410;BMP180;6775;49.574;11.170;2024-03-06T02:42:36;97570.88;;;7.56
13410;BMP180;6775;49.574;11.170;2024-03-06T02:45:07;97568.31;;;7.56
13410;BMP180;6775;49.574;11.170;2024-03-06T02:47:36;97560.84;;;7.53
13410;BMP180;6775;49.574;11.170;2024-03-06T02:50:05;97565.97;;;7.53
13410;BMP180;6775;49.574;11.170;2024-03-06T02:52:34;97565.97;;;7.53
13410;BMP180;6775;49.574;11.170;2024-03-06T02:55:04;97560.84;;;7.53
13410;BMP180;6775;49.574;11.170;2024-03-06T02:57:34;97567.81;;;7.52
13410;BMP180;6775;49.574;11.170;2024-03-06T03:00:04;97560.84;;;7.53
13410;BMP180;6775;49.574;11.170;2024-03-06T03:02:36;97564.31;;;7.52
13410;BMP180;6775;49.574;11.170;2024-03-06T03:05:05;97567.59;;;7.54
13410;BMP180;6775;49.574;11.170;2024-03-06T03:07:33;97561.59;;;7.55
13410;BMP180;6775;49.574;11.170;2024-03-06T03:10:02;97569.44;;;7.52
13410;BMP180;6775;49.574;11.170;2024-03-06T03:12:31;97561.84;;;7.51
13410;BMP180;6775;49.574;11.170;2024-03-06T03:15:02;97565.34;;;7.50
13410;BMP180;6775;49.574;11.170;2024-03-06T03:17:31;97573.13;;;7.49
13410;BMP180;6775;49.574;11.170;2024-03-06T03:20:01;97573.13;;;7.49
13410;BMP180;6775;49.574;11.170;2024-03-06T03:22:37;97566.06;;;7.52
13410;BMP180;6775;49.574;11.170;2024-03-06T03:25:08;97570.25;;;7.53
13410;BMP180;6775;49.574;11.170;2024-03-06T03:27:37;97564.13;;;7.55
13410;BMP180;6775;49.574;11.170;2024-03-06T03:30:09;97572.50;;;7.57
13410;BMP180;6775;49.574;11.170;2024-03-06T03:32:37;97577.63;;;7.57
13410;BMP180;6775;49.574;11.170;2024-03-06T03:35:06;97575.88;;;7.58
13410;BMP180;6775;49.574;11.170;2024-03-06T03:37:35;97575.06;;;7.57
13410;BMP180;6775;49.574;11.170;2024-03-06T03:40:05;97574.25;;;7.57
13410;BMP180;6775;49.574;11.170;2024-03-06T03:42:34;97566.69;;;7.55
13410;BMP180;6775;49.574;11.170;2024-03-06T03:45:04;97564.13;;;7.55
13410;BMP180;6775;49.574;11.170;2024-03-06T03:47:34;97567.59;;;7.54
13410;BMP180;6775;49.574;11.170;2024-03-06T03:50:02;97566.69;;;7.55
13410;BMP180;6775;49.574;11.170;2024-03-06T03:52:37;97564.13;;;7.55
13410;BMP180;6775;49.574;11.170;2024-03-06T03:55:09;97568.19;;;7.58
13410;BMP180;6775;49.574;11.170;2024-03-06T03:57:37;97571.72;;;7.57
13410;BMP180;6775;49.574;11.170;2024-03-06T04:00:07;97572.50;;;7.57
13410;BMP180;6775;49.574;11.170;2024-03-06T04:02:40;97576.94;;;7.55
13410;BMP180;6775;49.574;11.170;2024-03-06T04:05:09;97575.59;;;7.50
13410;BMP180;6775;49.574;11.170;2024-03-06T04:07:38;97569.72;;;7.48
13410;BMP180;6775;49.574;11.170;2024-03-06T04:10:07;97579.06;;;7.49
13410;BMP180;6775;49.574;11.170;2024-03-06T04:12:38;97579.84;;;7.50
13410;BMP180;6775;49.574;11.170;2024-03-06T04:15:08;97586.41;;;7.53
13410;BMP180;6775;49.574;11.170;2024-03-06T04:17:36;97584.50;;;7.57
13410;BMP180;6775;49.574;11.170;2024-03-06T04:20:07;97579.28;;;7.58
13410;BMP180;6775;49.574;11.170;2024-03-06T04:22:39;97581.84;;;7.58
13410;BMP180;6775;49.574;11.170;2024-03-06T04:25:08;97585.41;;;7.56
13410;BMP180;6775;49.574;11.170;2024-03-06T04:27:36;97588.78;;;7.56
13410;BMP180;6775;49.574;11.170;2024-03-06T04:30:06;97601.34;;;7.59
13410;BMP180;6775;49.574;11.170;2024-03-06T04:32:35;97600.53;;;7.59
13410;BMP180;6775;49.574;11.170;2024-03-06T04:35:05;97608.53;;;7.54
13410;BMP180;6775;49.574;11.170;2024-03-06T04:37:35;97608.72;;;7.52
13410;BMP180;6775;49.574;11.170;2024-03-06T04:40:04;97611.19;;;7.53
13410;BMP180;6775;49.574;11.170;2024-03-06T04:42:34;97613.44;;;7.57
13410;BMP180;6775;49.574;11.170;2024-03-06T04:45:08;97613.44;;;7.57
13410;BMP180;6775;49.574;11.170;2024-03-06T04:47:36;97614.56;;;7.53
13410;BMP180;6775;49.574;11.170;2024-03-06T04:50:09;97621.50;;;7.52
13410;BMP180;6775;49.574;11.170;2024-03-06T04:52:38;97626.53;;;7.53
13410;BMP180;6775;49.574;11.170;2024-03-06T04:55:08;97621.50;;;7.52
13410;BMP180;6775;49.574;11.170;2024-03-06T04:57:39;97623.97;;;7.53
13410;BMP180;6775;49.574;11.170;2024-03-06T05:00:10;97626.31;;;7.56
13410;BMP180;6775;49.574;11.170;2024-03-06T05:02:39;97633.34;;;7.52
13410;BMP180;6775;49.574;11.170;2024-03-06T05:05:27;97631.22;;;7.47
13410;BMP180;6775;49.574;11.170;2024-03-06T05:08:14;97628.94;;;7.42
13410;BMP180;6775;49.574;11.170;2024-03-06T05:11:01;97640.19;;;7.40
13410;BMP180;6775;49.574;11.170;2024-03-06T05:13:47;97644.00;;;7.34
13410;BMP180;6775;49.574;11.170;2024-03-06T05:16:34;97641.63;;;7.31
13410;BMP180;6775;49.574;11.170;2024-03-06T05:19:20;97641.00;;;7.28
13410;BMP180;6775;49.574;11.170;2024-03-06T05:22:10;97645.28;;;7.27
13410;BMP180;6775;49.574;11.170;2024-03-06T05:24:56;97643.44;;;7.29
13410;BMP180;6775;49.574;11.170;2024-03-06T05:27:42;97654.31;;;7.33
13410;BMP180;6775;49.574;11.170;2024-03-06T05:30:28;97643.25;;;7.32
13410;BMP180;6775;49.574;11.170;2024-03-06T05:33:15;97648.75;;;7.26
13410;BMP180;6775;49.574;11.170;2024-03-06T05:36:00;97650.69;;;7.23
13410;BMP180;6775;49.574;11.170;2024-03-06T05:38:48;97649.97;;;7.21
13410;BMP180;6775;49.574;11.170;2024-03-06T05:41:34;97654.88;;;7.24
13410;BMP180;6775;49.574;11.170;2024-03-06T05:44:20;97656.81;;;7.20
13410;BMP180;6775;49.574;11.170;2024-03-06T05:47:07;97656.00;;;7.20
13410;BMP180;6775;49.574;11.170;2024-03-06T05:49:53;97656.00;;;7.20
13410;BMP180;6775;49.574;11.170;2024-03-06T05:52:39;97656.53;;;7.25
13410;BMP180;6775;49.574;11.170;2024-03-06T05:55:26;97657.78;;;7.32
13410;BMP180;6775;49.574;11.170;2024-03-06T05:58:12;97655.03;;;7.35
13410;BMP180;6775;49.574;11.170;2024-03-06T06:00:43;97662.28;;;7.41
13410;BMP180;6775;49.574;11.170;2024-03-06T06:03:12;97661.19;;;7.45
13410;BMP180;6775;49.574;11.170;2024-03-06T06:05:40;97665.19;;;7.49
13410;BMP180;6775;49.574;11.170;2024-03-06T06:08:09;97676.03;;;7.52
13410;BMP180;6775;49.574;11.170;2024-03-06T06:10:38;97687.81;;;7.54
13410;BMP180;6775;49.574;11.170;2024-03-06T06:13:07;97692.00;;;7.55
13410;BMP180;6775;49.574;11.170;2024-03-06T06:15:35;97689.97;;;7.60
13410;BMP180;6775;49.574;11.170;2024-03-06T06:18:04;97697.22;;;7.66
13410;BMP180;6775;49.574;11.170;2024-03-06T06:20:32;97685.78;;;7.72
13410;BMP180;6775;49.574;11.170;2024-03-06T06:23:01;97687.34;;;7.74
13410;BMP180;6775;49.574;11.170;2024-03-06T06:25:29;97695.72;;;7.76
13410;BMP180;6775;49.574;11.170;2024-03-06T06:27:59;97699.72;;;7.80
13410;BMP180;6775;49.574;11.170;2024-03-06T06:30:27;97705.34;;;7.85
13410;BMP180;6775;49.574;11.170;2024-03-06T06:32:55;97711.00;;;7.90
13410;BMP180;6775;49.574;11.170;2024-03-06T06:35:24;97712.63;;;7.91
13410;BMP180;6775;49.574;11.170;2024-03-06T06:37:52;97714.47;;;7.89
13410;BMP180;6775;49.574;11.170;2024-03-06T06:40:20;97717.03;;;7.89
13410;BMP180;6775;49.574;11.170;2024-03-06T06:42:49;97717.84;;;7.90
13410;BMP180;6775;49.574;11.170;2024-03-06T06:45:20;97719.09;;;7.97
13410;BMP180;6775;49.574;11.170;2024-03-06T06:47:51;97725.34;;;8.05
13410;BMP180;6775;49.574;11.170;2024-03-06T06:50:20;97722.38;;;8.11
13410;BMP180;6775;49.574;11.170;2024-03-06T06:52:53;97732.06;;;8.20
13410;BMP180;6775;49.574;11.170;2024-03-06T06:55:21;97727.13;;;8.29
13410;BMP180;6775;49.574;11.170;2024-03-06T06:57:51;97727.34;;;8.39
13410;BMP180;6775;49.574;11.170;2024-03-06T07:00:21;97733.16;;;8.53
13410;BMP180;6775;49.574;11.170;2024-03-06T07:02:50;97742.47;;;8.66
13410;BMP180;6775;49.574;11.170;2024-03-06T07:05:19;97729.97;;;8.74
13410;BMP180;6775;49.574;11.170;2024-03-06T07:07:47;97736.09;;;8.84
13410;BMP180;6775;49.574;11.170;2024-03-06T07:10:21;97735.94;;;8.98
13410;BMP180;6775;49.574;11.170;2024-03-06T07:12:49;97740.75;;;9.02
13410;BMP180;6775;49.574;11.170;2024-03-06T07:15:18;97748.75;;;8.98
13410;BMP180;6775;49.574;11.170;2024-03-06T07:17:47;97749.31;;;8.91
13410;BMP180;6775;49.574;11.170;2024-03-06T07:20:16;97747.97;;;8.85
13410;BMP180;6775;49.574;11.170;2024-03-06T07:22:44;97745.63;;;8.82
13410;BMP180;6775;49.574;11.170;2024-03-06T07:25:13;97751.16;;;8.76
13410;BMP180;6775;49.574;11.170;2024-03-06T07:27:41;97758.88;;;8.64
13410;BMP180;6775;49.574;11.170;2024-03-06T07:30:11;97751.91;;;8.53
13410;BMP180;6775;49.574;11.170;2024-03-06T07:32:41;97755.41;;;8.40
13410;BMP180;6775;49.574;11.170;2024-03-06T07:35:11;97763.59;;;8.33
13410;BMP180;6775;49.574;11.170;2024-03-06T07:37:39;97760.94;;;8.34
13410;BMP180;6775;49.574;11.170;2024-03-06T07:40:09;97768.63;;;8.34
13410;BMP180;6775;49.574;11.170;2024-03-06T07:42:37;97763.41;;;8.36
13410;BMP180;6775;49.574;11.170;2024-03-06T07:45:07;97774.25;;;8.39
13410;BMP180;6775;49.574;11.170;2024-03-06T07:47:36;97765.66;;;8.40
13410;BMP180;6775;49.574;11.170;2024-03-06T07:50:06;97768.53;;;8.36
13410;BMP180;6775;49.574;11.170;2024-03-06T07:52:37;97781.81;;;8.41
13410;BMP180;6775;49.574;11.170;2024-03-06T07:55:06;97783.06;;;8.48
13410;BMP180;6775;49.574;11.170;2024-03-06T07:57:34;97772.59;;;8.51
13410;BMP180;6775;49.574;11.170;2024-03-06T08:00:03;97773.03;;;8.57
13410;BMP180;6775;49.574;11.170;2024-03-06T08:02:35;97785.31;;;8.64
13410;BMP180;6775;49.574;11.170;2024-03-06T08:05:05;97786.75;;;8.68
13410;BMP180;6775;49.574;11.170;2024-03-06T08:07:38;97791.06;;;8.80
13410;BMP180;6775;49.574;11.170;2024-03-06T08:10:09;97786.91;;;9.02
13410;BMP180;6775;49.574;11.170;2024-03-06T08:12:41;97788.19;;;9.33
13410;BMP180;6775;49.574;11.170;2024-03-06T08:15:11;97782.34;;;9.77
13410;BMP180;6775;49.574;11.170;2024-03-06T08:17:42;97777.88;;;10.26
13410;BMP180;6775;49.574;11.170;2024-03-06T08:20:12;97782.13;;;10.49
13410;BMP180;6775;49.574;11.170;2024-03-06T08:22:42;97781.91;;;10.62
13410;BMP180;6775;49.574;11.170;2024-03-06T08:25:12;97784.03;;;10.79
13410;BMP180;6775;49.574;11.170;2024-03-06T08:27:41;97784.28;;;10.87
13410;BMP180;6775;49.574;11.170;2024-03-06T08:30:10;97783.91;;;10.81
13410;BMP180;6775;49.574;11.170;2024-03-06T08:32:39;97783.09;;;10.58
13410;BMP180;6775;49.574;11.170;2024-03-06T08:35:12;97790.84;;;10.35
13410;BMP180;6775;49.574;11.170;2024-03-06T08:37:49;97800.50;;;10.21
13410;BMP180;6775;49.574;11.170;2024-03-06T08:40:17;97790.44;;;10.07
13410;BMP180;6775;49.574;11.170;2024-03-06T08:42:46;97809.56;;;10.03
13410;BMP180;6775;49.574;11.170;2024-03-06T08:45:17;97805.81;;;9.96
13410;BMP180;6775;49.574;11.170;2024-03-06T08:47:46;97814.19;;;9.98
13410;BMP180;6775;49.574;11.170;2024-03-06T08:50:16;97803.97;;;10.09
13410;BMP180;6775;49.574;11.170;2024-03-06T08:52:45;97810.53;;;10.47
13410;BMP180;6775;49.574;11.170;2024-03-06T08:55:15;97803.41;;;10.72
13410;BMP180;6775;49.574;11.170;2024-03-06T08:57:44;97806.50;;;11.10
13410;BMP180;6775;49.574;11.170;2024-03-06T09:00:13;97811.38;;;11.35
13410;BMP180;6775;49.574;11.170;2024-03-06T09:02:43;97816.50;;;11.57
13410;BMP180;6775;49.574;11.170;2024-03-06T09:05:12;97812.66;;;11.29
13410;BMP180;6775;49.574;11.170;2024-03-06T09:07:41;97817.72;;;11.20
13410;BMP180;6775;49.574;11.170;2024-03-06T09:10:10;97820.50;;;11.28
13410;BMP180;6775;49.574;11.170;2024-03-06T09:12:40;97830.09;;;11.48
13410;BMP180;6775;49.574;11.170;2024-03-06T09:15:09;97830.78;;;11.28
13410;BMP180;6775;49.574;11.170;2024-03-06T09:17:38;97831.25;;;11.65
13410;BMP180;6775;49.574;11.170;2024-03-06T09:20:08;97829.31;;;12.41
13410;BMP180;6775;49.574;11.170;2024-03-06T09:22:40;97824.81;;;12.94
13410;BMP180;6775;49.574;11.170;2024-03-06T09:25:10;97834.03;;;13.17
13410;BMP180;6775;49.574;11.170;2024-03-06T09:27:43;97826.88;;;13.97
13410;BMP180;6775;49.574;11.170;2024-03-06T09:30:13;97822.84;;;15.69
13410;BMP180;6775;49.574;11.170;2024-03-06T09:32:42;97827.75;;;16.76
13410;BMP180;6775;49.574;11.170;2024-03-06T09:35:11;97824.75;;;16.88
13410;BMP180;6775;49.574;11.170;2024-03-06T09:37:41;97821.25;;;16.55
13410;BMP180;6775;49.574;11.170;2024-03-06T09:40:11;97822.91;;;18.37
13410;BMP180;6775;49.574;11.170;2024-03-06T09:42:49;97819.25;;;19.64
13410;BMP180;6775;49.574;11.170;2024-03-06T09:45:17;97819.31;;;18.78
13410;BMP180;6775;49.574;11.170;2024-03-06T09:47:49;97825.72;;;17.13
13410;BMP180;6775;49.574;11.170;2024-03-06T09:50:25;97827.19;;;16.13
13410;BMP180;6775;49.574;11.170;2024-03-06T09:52:55;97830.06;;;15.03
13410;BMP180;6775;49.574;11.170;2024-03-06T09:55:24;97820.94;;;14.25
13410;BMP180;6775;49.574;11.170;2024-03-06T09:57:54;97834.44;;;13.70
13410;BMP180;6775;49.574;11.170;2024-03-06T10:00:23;97827.88;;;14.15
13410;BMP180;6775;49.574;11.170;2024-03-06T10:02:57;97830.69;;;13.93
13410;BMP180;6775;49.574;11.170;2024-03-06T10:05:28;97829.25;;;16.09
13410;BMP180;6775;49.574;11.170;2024-03-06T10:08:01;97816.94;;;15.94
13410;BMP180;6775;49.574;11.170;2024-03-06T10:10:31;97820.72;;;15.82
13410;BMP180;6775;49.574;11.170;2024-03-06T10:13:01;97813.88;;;17.18
13410;BMP180;6775;49.574;11.170;2024-03-06T10:15:29;97809.47;;;17.85
13410;BMP180;6775;49.574;11.170;2024-03-06T10:18:12;97812.03;;;16.77
13410;BMP180;6775;49.574;11.170;2024-03-06T10:20:41;97822.00;;;15.95
13410;BMP180;6775;49.574;11.170;2024-03-06T10:23:12;97823.38;;;15.10
13410;BMP180;6775;49.574;11.170;2024-03-06T10:25:43;97827.75;;;14.07
13410;BMP180;6775;49.574;11.170;2024-03-06T10:28:13;97825.91;;;13.31
13410;BMP180;6775;49.574;11.170;2024-03-06T10:30:42;97832.97;;;12.79
13410;BMP180;6775;49.574;11.170;2024-03-06T10:33:13;97829.94;;;12.33
13410;BMP180;6775;49.574;11.170;2024-03-06T10:35:43;97844.25;;;12.06
13410;BMP180;6775;49.574;11.170;2024-03-06T10:38:12;97834.94;;;11.83
13410;BMP180;6775;49.574;11.170;2024-03-06T10:40:42;97840.22;;;11.71
13410;BMP180;6775;49.574;11.170;2024-03-06T10:43:13;97837.53;;;11.72
13410;BMP180;6775;49.574;11.170;2024-03-06T10:45:48;97844.81;;;11.67
13410;BMP180;6775;49.574;11.170;2024-03-06T10:48:18;97843.88;;;11.68
13410;BMP180;6775;49.574;11.170;2024-03-06T10:50:49;97853.28;;;11.48
13410;BMP180;6775;49.574;11.170;2024-03-06T10:53:18;97850.19;;;11.21
13410;BMP180;6775;49.574;11.170;2024-03-06T10:55:51;97844.00;;;11.02
13410;BMP180;6775;49.574;11.170;2024-03-06T10:58:23;97856.16;;;10.89
13410;BMP180;6775;49.574;11.170;2024-03-06T11:00:52;97851.94;;;10.77
13410;BMP180;6775;49.574;11.170;2024-03-06T11:03:22;97849.00;;;10.70
13410;BMP180;6775;49.574;11.170;2024-03-06T11:05:51;97854.00;;;10.61
13410;BMP180;6775;49.574;11.170;2024-03-06T11:08:20;97859.28;;;10.70
13410;BMP180;6775;49.574;11.170;2024-03-06T11:10:49;97853.78;;;10.64
13410;BMP180;6775;49.574;11.170;2024-03-06T11:13:24;97857.84;;;10.56
13410;BMP180;6775;49.574;11.170;2024-03-06T11:15:58;97862.50;;;10.51
13410;BMP180;6775;49.574;11.170;2024-03-06T11:18:43;97859.34;;;10.58
13410;BMP180;6775;49.574;11.170;2024-03-06T11:21:33;97852.84;;;10.65
13410;BMP180;6775;49.574;11.170;2024-03-06T11:24:32;97861.84;;;10.70
13410;BMP180;6775;49.574;11.170;2024-03-06T11:27:02;97864.41;;;10.70
13410;BMP180;6775;49.574;11.170;2024-03-06T11:30:09;97855.78;;;10.71
13410;BMP180;6775;49.574;11.170;2024-03-06T11:32:58;97866.31;;;10.68
13410;BMP180;6775;49.574;11.170;2024-03-06T11:35:28;97856.25;;;10.65
13410;BMP180;6775;49.574;11.170;2024-03-06T11:37:59;97860.19;;;10.58
13410;BMP180;6775;49.574;11.170;2024-03-06T11:40:27;97859.47;;;10.56
13410;BMP180;6775;49.574;11.170;2024-03-06T11:42:55;97863.13;;;10.54
13410;BMP180;6775;49.574;11.170;2024-03-06T11:45:25;97863.13;;;10.54
13410;BMP180;6775;49.574;11.170;2024-03-06T11:47:59;97862.50;;;10.51
13410;BMP180;6775;49.574;11.170;2024-03-06T11:50:28;97860.38;;;10.45
13410;BMP180;6775;49.574;11.170;2024-03-06T11:52:58;97864.84;;;10.43
13410;BMP180;6775;49.574;11.170;2024-03-06T11:55:27;97863.19;;;10.42
13410;BMP180;6775;49.574;11.170;2024-03-06T11:57:55;97864.84;;;10.43
13410;BMP180;6775;49.574;11.170;2024-03-06T12:00:25;97859.22;;;10.49
13410;BMP180;6775;49.574;11.170;2024-03-06T12:02:53;97865.56;;;10.56
13410;BMP180;6775;49.574;11.170;2024-03-06T12:05:23;97863.47;;;10.60
13410;BMP180;6775;49.574;11.170;2024-03-06T12:07:52;97857.97;;;10.65
13410;BMP180;6775;49.574;11.170;2024-03-06T12:10:21;97855.78;;;10.71
13410;BMP180;6775;49.574;11.170;2024-03-06T12:12:49;97860.47;;;10.77
13410;BMP180;6775;49.574;11.170;2024-03-06T12:15:18;97852.53;;;10.80
13410;BMP180;6775;49.574;11.170;2024-03-06T12:17:49;97856.38;;;10.86
13410;BMP180;6775;49.574;11.170;2024-03-06T12:20:18;97852.78;;;10.88
13410;BMP180;6775;49.574;11.170;2024-03-06T12:22:49;97854.16;;;10.92
13410;BMP180;6775;49.574;11.170;2024-03-06T12:25:19;97853.50;;;11.01
13410;BMP180;6775;49.574;11.170;2024-03-06T12:27:48;97850.34;;;11.08
13410;BMP180;6775;49.574;11.170;2024-03-06T12:30:17;97856.53;;;11.17
13410;BMP180;6775;49.574;11.170;2024-03-06T12:32:57;97845.16;;;11.19
13410;BMP180;6775;49.574;11.170;2024-03-06T12:35:27;97854.66;;;11.19
13410;BMP180;6775;49.574;11.170;2024-03-06T12:37:55;97853.72;;;11.20
13410;BMP180;6775;49.574;11.170;2024-03-06T12:40:24;97858.53;;;11.24
13410;BMP180;6775;49.574;11.170;2024-03-06T12:42:52;97851.25;;;11.29
13410;BMP180;6775;49.574;11.170;2024-03-06T12:45:20;97850.66;;;11.37
13410;BMP180;6775;49.574;11.170;2024-03-06T12:47:49;97856.41;;;11.40
13410;BMP180;6775;49.574;11.170;2024-03-06T12:50:19;97853.59;;;11.43
13410;BMP180;6775;49.574;11.170;2024-03-06T12:52:47;97854.06;;;11.48
13410;BMP180;6775;49.574;11.170;2024-03-06T12:55:16;97850.69;;;11.58
13410;BMP180;6775;49.574;11.170;2024-03-06T12:57:45;97845.03;;;11.75
13410;BMP180;6775;49.574;11.170;2024-03-06T13:00:14;97848.28;;;11.88
13410;BMP180;6775;49.574;11.170;2024-03-06T13:02:43;97844.50;;;11.92
13410;BMP180;6775;49.574;11.170;2024-03-06T13:05:12;97836.66;;;11.94
13410;BMP180;6775;49.574;11.170;2024-03-06T13:07:43;97842.19;;;11.89
13410;BMP180;6775;49.574;11.170;2024-03-06T13:10:12;97844.19;;;11.86
13410;BMP180;6775;49.574;11.170;2024-03-06T13:12:40;97837.41;;;11.85
13410;BMP180;6775;49.574;11.170;2024-03-06T13:15:09;97846.53;;;11.89
13410;BMP180;6775;49.574;11.170;2024-03-06T13:17:38;97846.16;;;11.82
13410;BMP180;6775;49.574;11.170;2024-03-06T13:20:07;97849.94;;;11.78
13410;BMP180;6775;49.574;11.170;2024-03-06T13:22:39;97846.78;;;11.75
13410;BMP180;6775;49.574;11.170;2024-03-06T13:25:09;97843.66;;;11.71
13410;BMP180;6775;49.574;11.170;2024-03-06T13:27:37;97845.13;;;11.74
13410;BMP180;6775;49.574;11.170;2024-03-06T13:30:07;97839.53;;;11.80
13410;BMP180;6775;49.574;11.170;2024-03-06T13:32:36;97829.66;;;11.85
13410;BMP180;6775;49.574;11.170;2024-03-06T13:35:05;97832.84;;;11.88
13410;BMP180;6775;49.574;11.170;2024-03-06T13:37:36;97841.25;;;11.90
13410;BMP180;6775;49.574;11.170;2024-03-06T13:40:08;97832.59;;;11.91
13410;BMP180;6775;49.574;11.170;2024-03-06T13:42:37;97832.00;;;11.88
13410;BMP180;6775;49.574;11.170;2024-03-06T13:45:07;97832.38;;;11.83
13410;BMP180;6775;49.574;11.170;2024-03-06T13:47:39;97834.81;;;11.85
13410;BMP180;6775;49.574;11.170;2024-03-06T13:50:09;97837.75;;;11.91
13410;BMP180;6775;49.574;11.170;2024-03-06T13:52:39;97831.97;;;11.99
13410;BMP180;6775;49.574;11.170;2024-03-06T13:55:09;97837.25;;;11.97
13410;BMP180;6775;49.574;11.170;2024-03-06T13:57:40;97840.78;;;11.85
13410;BMP180;6775;49.574;11.170;2024-03-06T14:00:10;97838.94;;;11.76
13410;BMP180;6775;49.574;11.170;2024-03-06T14:02:45;97840.22;;;11.71
13410;BMP180;6775;49.574;11.170;2024-03-06T14:05:14;97841.19;;;11.70
13410;BMP180;6775;49.574;11.170;2024-03-06T14:07:43;97846.47;;;11.68
13410;BMP180;6775;49.574;11.170;2024-03-06T14:10:12;97840.47;;;11.68
13410;BMP180;6775;49.574;11.170;2024-03-06T14:12:41;97841.75;;;11.73
13410;BMP180;6775;49.574;11.170;2024-03-06T14:15:09;97846.22;;;11.71
13410;BMP180;6775;49.574;11.170;2024-03-06T14:17:40;97848.66;;;11.73
13410;BMP180;6775;49.574;11.170;2024-03-06T14:20:10;97848.91;;;11.70
13410;BMP180;6775;49.574;11.170;2024-03-06T14:22:39;97840.72;;;11.65
13410;BMP180;6775;49.574;11.170;2024-03-06T14:25:08;97844.47;;;11.61
13410;BMP180;6775;49.574;11.170;2024-03-06T14:27:39;97837.09;;;11.57
13410;BMP180;6775;49.574;11.170;2024-03-06T14:30:08;97840.75;;;11.54
13410;BMP180;6775;49.574;11.170;2024-03-06T14:32:38;97841.69;;;11.53
13410;BMP180;6775;49.574;11.170;2024-03-06T14:35:08;97844.63;;;11.49
13410;BMP180;6775;49.574;11.170;2024-03-06T14:37:37;97843.19;;;11.45